Home > Products > Valid Products > TAF

000
FTUS41 KCLE 211100
TAFERI
TAF
KERI 211120Z 2112/2212 18011KT P6SM SCT250
     FM211800 22010KT P6SM SCT120 BKN200
     FM220000 22012KT P6SM SCT040 BKN120=



000
FTUS41 KCLE 211100
TAFCLE
TAF
KCLE 211120Z 2112/2218 18006KT P6SM SCT250
     FM212100 22012G18KT P6SM SCT040 BKN120
     FM220900 24012KT 5SM -SHRA OVC025=



000
FTUS41 KCLE 211100
TAFYNG
TAF
KYNG 211120Z 2112/2212 13007KT P6SM SCT200
     FM211500 16010KT P6SM BKN200
     FM212200 21012G18KT P6SM SCT040 BKN120
     FM220600 23008KT P6SM OVC035=



000
FTUS41 KCLE 211100
TAFMFD
TAF
KMFD 211120Z 2112/2212 18006KT P6SM BKN250
     FM211800 21010G18KT P6SM SCT100 BKN200
     FM220200 22010KT P6SM BKN040 OVC100
     FM220600 23010KT 5SM -SHRA OVC025=



000
FTUS41 KCLE 211100
TAFFDY
TAF
KFDY 211120Z 2112/2212 19005KT P6SM BKN250
     FM211700 22010G18KT P6SM SCT100 BKN200
     FM212300 24012G18KT P6SM BKN040 OVC100
     FM220400 24012KT 5SM -SHRA OVC025=



000
FTUS41 KCLE 211100
TAFTOL
TAF
KTOL 211120Z 2112/2212 20003KT P6SM BKN250
     FM211700 22010G18KT P6SM SCT100 BKN200
     FM212300 24012G18KT P6SM BKN040 OVC100
     FM220400 24012KT 5SM -SHRA OVC025=



000
FTUS41 KCLE 211100
TAFCAK
TAF
KCAK 211120Z 2112/2212 18008KT P6SM SCT200
     FM212100 22012G18KT P6SM SCT040 BKN120
     FM220500 23008KT P6SM OVC035=



000
FTUS41 KCLE 210800 AAA
TAFCLE
TAF AMD
KCLE 210854Z 2109/2212 17006KT P6SM SCT250
     FM211600 22010KT P6SM SCT120 BKN200
     FM212100 23012G18KT P6SM SCT040 BKN100=



000
FTUS41 KCLE 210500
TAFYNG
TAF
KYNG 210520Z 2106/2206 14007KT P6SM SCT250
     FM211600 20010KT P6SM BKN200
     FM212200 22012G18KT P6SM SCT040 BKN100=



000
FTUS41 KCLE 210500
TAFCAK
TAF
KCAK 210520Z 2106/2206 16006KT P6SM SCT200
     FM211600 22012KT P6SM BKN200
     FM212200 23012G18KT P6SM SCT040 BKN100=



000
FTUS41 KCLE 210500
TAFERI
TAF
KERI 210520Z 2106/2206 17008KT P6SM SCT250
     FM211600 22010KT P6SM BKN250
     FM212300 22012G18KT P6SM SCT040 BKN120=



000
FTUS41 KCLE 210500
TAFTOL
TAF
KTOL 210520Z 2106/2206 18005KT P6SM SCT250
     FM211600 23010G18KT P6SM SCT100 BKN200
     FM212300 24012G18KT P6SM BKN040 OVC100
     FM220400 24012KT 5SM -SHRA OVC025=



000
FTUS41 KCLE 210500
TAFFDY
TAF
KFDY 210520Z 2106/2206 18006KT P6SM SCT250
     FM211600 23010G18KT P6SM SCT100 BKN200
     FM212300 24012G18KT P6SM BKN040 OVC100
     FM220400 24012KT 5SM -SHRA OVC025=



000
FTUS41 KCLE 210500
TAFCLE
TAF
KCLE 210520Z 2106/2212 18006KT P6SM SCT250
     FM211600 22010KT P6SM SCT120 BKN200
     FM212100 23012G18KT P6SM SCT040 BKN100=



000
FTUS41 KCLE 210500
TAFMFD
TAF
KMFD 210520Z 2106/2206 16006KT P6SM SCT250
     FM211600 23010G18KT P6SM SCT100 BKN200
     FM220200 24012G18KT P6SM BKN040 OVC100=



000
FTUS41 KCLE 210300 AAA
TAFCLE
TAF AMD
KCLE 210300Z 2103/2206 VRB03KT P6SM SCT250
     FM210400 17006KT P6SM SCT250
     FM211600 22010KT P6SM BKN180=



000
FTUS41 KCLE 202300
TAFERI
TAF
KERI 202333Z 2100/2124 04006KT P6SM SCT250
     FM210100 14008KT P6SM SCT250
     FM211600 22010KT P6SM SCT250=



000
FTUS41 KCLE 202300
TAFFDY
TAF
KFDY 202333Z 2100/2124 18006KT P6SM SCT250
     FM211600 23012G18KT P6SM BKN180=



000
FTUS41 KCLE 202300
TAFMFD
TAF
KMFD 202333Z 2100/2124 17006KT P6SM SCT250
     FM211600 20010G18KT P6SM BKN180=



000
FTUS41 KCLE 202300
TAFCAK
TAF
KCAK 202333Z 2100/2124 15006KT P6SM SCT250
     FM211600 22010G16KT P6SM BKN200=



000
FTUS41 KCLE 202300
TAFCLE
TAF
KCLE 202333Z 2100/2206 VRB05KT P6SM SCT250
     FM210200 17006KT P6SM SCT250
     FM211600 22010KT P6SM BKN180=



000
FTUS41 KCLE 202300
TAFYNG
TAF
KYNG 202333Z 2100/2124 14006KT P6SM SCT250
     FM211600 22010KT P6SM BKN200=



000
FTUS41 KCLE 202300
TAFTOL
TAF
KTOL 202333Z 2100/2124 08007KT P6SM SCT250
     FM210400 18005KT P6SM SCT250
     FM211600 23010G18KT P6SM BKN180=



000
FTUS41 KCLE 202100 AAA
TAFCLE
TAF AMD
KCLE 202116Z 2021/2124 23008KT P6SM SCT250
      TEMPO 2021/2023 VRB06KT
     FM210100 17005KT P6SM BKN250
     FM211400 20010KT P6SM SCT100 BKN250=



000
FTUS41 KCLE 201700
TAFERI
TAF
KERI 201733Z 2018/2118 04008KT P6SM SCT250
     FM210100 18008KT P6SM SCT250
     FM211700 24010KT P6SM SCT250=



000
FTUS41 KCLE 201700
TAFYNG
TAF
KYNG 201733Z 2018/2118 17007KT P6SM SCT250=



000
FTUS41 KCLE 201700
TAFFDY
TAF
KFDY 201733Z 2018/2118 18006KT P6SM SCT250
     FM211600 23010KT P6SM SCT150 BKN250=



000
FTUS41 KCLE 201700
TAFCAK
TAF
KCAK 201733Z 2018/2118 17007KT P6SM BKN250=



000
FTUS41 KCLE 201700
TAFTOL
TAF
KTOL 201733Z 2018/2118 18005KT P6SM SCT250
     FM211500 23008KT P6SM SCT150 BKN250=



000
FTUS41 KCLE 201700
TAFMFD
TAF
KMFD 201733Z 2018/2118 17008KT P6SM SCT250
     FM211600 20008KT P6SM SCT150 BKN250=



000
FTUS41 KCLE 201700
TAFCLE
TAF
KCLE 201733Z 2018/2124 17008KT P6SM SCT250
     FM202030 04005KT P6SM SCT250
     FM210100 18005KT P6SM BKN250
     FM211400 20010KT P6SM SCT100 BKN250=



000
FTUS41 KCLE 201500 AAA
TAFCLE
TAF AMD
KCLE 201507Z 2015/2118 16007KT P6SM SCT250
     FM202030 04005KT P6SM SCT250
     FM210100 18005KT P6SM BKN250
     FM211400 20010KT P6SM SCT100 BKN250=



000
FTUS41 KCLE 201100
TAFCAK
TAF
KCAK 201130Z 2012/2112 12007KT P6SM SCT250
     FM201500 17007KT P6SM SCT250=



000
FTUS41 KCLE 201100
TAFTOL
TAF
KTOL 201130Z 2012/2112 14004KT P6SM SCT250
     FM201600 19008KT P6SM SCT250
     FM210000 19004KT P6SM BKN250=



000
FTUS41 KCLE 201100
TAFMFD
TAF
KMFD 201130Z 2012/2112 15005KT P6SM SCT250
     FM201500 18008KT P6SM SCT250=



000
FTUS41 KCLE 201100
TAFFDY
TAF
KFDY 201130Z 2012/2112 14005KT P6SM SCT250
     FM201500 18010KT P6SM SCT250
     FM210000 18007KT P6SM BKN250=



000
FTUS41 KCLE 201100
TAFYNG
TAF
KYNG 201130Z 2012/2112 13007KT P6SM SCT250
     FM201600 15007KT P6SM SCT250=



000
FTUS41 KCLE 201100
TAFERI
TAF
KERI 201130Z 2012/2112 16010G18KT P6SM SCT250
     FM201800 04008KT P6SM SCT250
     FM210100 18008KT P6SM SCT250=



000
FTUS41 KCLE 201100
TAFCLE
TAF
KCLE 201130Z 2012/2118 16007KT P6SM SCT250
     FM202030 04005KT P6SM SCT250
     FM210100 18005KT P6SM BKN250
     FM211400 20010KT P6SM SCT100 BKN250=



000
FTUS41 KCLE 200800 AAA
TAFCLE
TAF AMD
KCLE 200854Z 2009/2112 VRB04KT P6SM SCT250
     FM201300 18007KT P6SM SCT250
     FM202030 04005KT P6SM SCT250
     FM210100 18005KT P6SM SCT250=



000
FTUS41 KCLE 200500
TAFYNG
TAF
KYNG 200532Z 2006/2106 10004KT P6SM SCT250
     FM201600 15007KT P6SM SCT250=



000
FTUS41 KCLE 200500
TAFCAK
TAF
KCAK 200532Z 2006/2106 10004KT P6SM SCT250
     FM201600 17007KT P6SM SCT250=



000
FTUS41 KCLE 200500
TAFTOL
TAF
KTOL 200532Z 2006/2106 11004KT P6SM BKN250
     FM201600 17008KT P6SM SCT250
     FM210000 19004KT P6SM SCT250=



000
FTUS41 KCLE 200500
TAFCLE
TAF
KCLE 200532Z 2006/2112 VRB04KT P6SM SCT250
     FM201300 18007KT P6SM SCT250
     FM202030 04005KT P6SM SCT250
     FM210100 18005KT P6SM SCT250=



000
FTUS41 KCLE 200500
TAFERI
TAF
KERI 200532Z 2006/2106 VRB04KT P6SM SKC
     FM201200 16008KT P6SM SCT250
     FM201800 03008KT P6SM SCT250
     FM210100 18008KT P6SM SCT250=



000
FTUS41 KCLE 200500
TAFMFD
TAF
KMFD 200532Z 2006/2106 VRB04KT P6SM SCT250
     FM201600 18008KT P6SM SCT250=



000
FTUS41 KCLE 200500
TAFFDY
TAF
KFDY 200532Z 2006/2106 09004KT P6SM SCT250
     FM201600 18008KT P6SM SCT250=



000
FTUS41 KCLE 200200 AAA
TAFCLE
TAF AMD
KCLE 200247Z 2003/2106 03004KT P6SM SKC
     FM200600 14006KT P6SM SCT250=



000
FTUS41 KCLE 192300
TAFCAK
TAF
KCAK 192334Z 2000/2024 03009KT P6SM SCT250
     FM200100 02006KT P6SM SCT250=



000
FTUS41 KCLE 192300
TAFFDY
TAF
KFDY 192334Z 2000/2024 07012KT P6SM SKC
     FM200300 15004KT P6SM SKC=



000
FTUS41 KCLE 192300
TAFMFD
TAF
KMFD 192334Z 2000/2024 04010KT P6SM SKC
     FM200200 01007KT P6SM SCT250=



000
FTUS41 KCLE 192300
TAFTOL
TAF
KTOL 192334Z 2000/2024 11005KT P6SM SCT250=



000
FTUS41 KCLE 192300
TAFCLE
TAF
KCLE 192334Z 2000/2106 03012KT P6SM SKC
     FM200100 14006KT P6SM SCT250=



000
FTUS41 KCLE 192300
TAFYNG
TAF
KYNG 192334Z 2000/2024 35008KT P6SM BKN250
     FM200200 12006KT P6SM BKN250=



000
FTUS41 KCLE 192300
TAFERI
TAF
KERI 192334Z 2000/2024 04010G15KT P6SM BKN250
     FM200200 13006KT P6SM SCT250=



000
FTUS41 KCLE 192100 AAA
TAFCLE
TAF AMD
KCLE 192101Z 1921/2024 03012KT P6SM SKC
     FM200100 08005KT P6SM SCT250=



000
FTUS41 KCLE 191700
TAFCAK
TAF
KCAK 191720Z 1918/2018 03009KT P6SM SCT250
     FM200100 06006KT P6SM SCT250=



000
FTUS41 KCLE 191700
TAFTOL
TAF
KTOL 191720Z 1918/2018 08010G15KT P6SM SKC
     FM192300 08004KT P6SM SCT250=



000
FTUS41 KCLE 191700
TAFYNG
TAF
KYNG 191720Z 1918/2018 35008KT P6SM SCT250
     FM200100 07006KT P6SM BKN250=



000
FTUS41 KCLE 191700
TAFERI
TAF
KERI 191720Z 1918/2018 03010G15KT P6SM SKC
     FM192300 08006KT P6SM SCT250=



000
FTUS41 KCLE 191700
TAFCLE
TAF
KCLE 191720Z 1918/2024 35010KT P6SM SKC
     FM200100 08005KT P6SM SCT250=



000
FTUS41 KCLE 191700
TAFMFD
TAF
KMFD 191720Z 1918/2018 05010G15KT P6SM SKC
     FM192300 07007KT P6SM SCT250=



000
FTUS41 KCLE 191700
TAFFDY
TAF
KFDY 191720Z 1918/2018 05010G15KT P6SM SKC
     FM200100 08007KT P6SM SCT250=



000
FTUS41 KCLE 191500 AAA
TAFCLE
TAF AMD
KCLE 191501Z 1915/2018 03010KT P6SM SCT250
     FM200100 08005KT P6SM SCT250=



000
FTUS41 KCLE 191100
TAFCLE
TAF
KCLE 191128Z 1912/2018 04010KT P6SM SCT035
     FM191400 04012G20KT P6SM SCT250
     FM200100 08005KT P6SM SCT250=



000
FTUS41 KCLE 191100
TAFERI
TAF
KERI 191128Z 1912/2012 03008KT P6SM SCT035
     FM191400 03010KT P6SM SKC
     FM192300 08006KT P6SM SCT250=



000
FTUS41 KCLE 191100
TAFCAK
TAF
KCAK 191128Z 1912/2012 04008KT P6SM SCT035
     FM191400 04010KT P6SM SCT250
     FM200100 06006KT P6SM SCT250=



000
FTUS41 KCLE 191100
TAFYNG
TAF
KYNG 191128Z 1912/2012 03006KT 6SM BR SCT035
     FM191400 03008KT P6SM SCT250
     FM200100 07006KT P6SM SCT250=



000
FTUS41 KCLE 191100
TAFFDY
TAF
KFDY 191128Z 1912/2012 06012G20KT P6SM SCT250
     FM200100 08007KT P6SM SCT250=



000
FTUS41 KCLE 191100
TAFTOL
TAF
KTOL 191128Z 1912/2012 05010KT P6SM SCT035
     FM191400 08010G20KT P6SM SCT250
     FM192300 08004KT P6SM SCT250=



000
FTUS41 KCLE 191100
TAFMFD
TAF
KMFD 191128Z 1912/2012 02008KT 6SM BR SCT035
     FM191400 04010G20KT P6SM SKC
     FM192300 07007KT P6SM SCT250=



000
FTUS41 KCLE 190900 AAA
TAFYNG
TAF AMD
KYNG 190952Z 1910/2006 03006KT P6SM SCT035
     FM191400 03008KT P6SM SCT250
     FM200100 07006KT P6SM SCT250=



000
FTUS41 KCLE 190900 AAA
TAFCAK
TAF AMD
KCAK 190951Z 1910/2006 04008KT P6SM SCT035
     FM191400 04010KT P6SM SCT250
     FM200100 06006KT P6SM SCT250=



000
FTUS41 KCLE 190900 AAA
TAFFDY
TAF AMD
KFDY 190950Z 1910/2006 04014G20KT P6SM SCT035
     FM191200 06012G20KT P6SM SCT250
     FM200100 08007KT P6SM SCT250=



000
FTUS41 KCLE 190900 AAA
TAFTOL
TAF AMD
KTOL 190949Z 1910/2006 05010KT P6SM SCT035
     FM191400 08010G20KT P6SM SCT250
     FM192300 08004KT P6SM SCT250=



000
FTUS41 KCLE 190900 AAA
TAFCLE
TAF AMD
KCLE 190943Z 1910/2012 04010KT P6SM SCT035
     FM191300 04012G20KT P6SM SCT250
     FM200100 08005KT P6SM SCT250=



000
FTUS41 KCLE 190500
TAFTOL
TAF
KTOL 190531Z 1906/2006 04006KT P6SM BKN035
     FM191000 04008KT P6SM SKC
     FM191400 08010G20KT P6SM SCT250
     FM192300 08004KT P6SM SCT250=



000
FTUS41 KCLE 190500
TAFMFD
TAF
KMFD 190531Z 1906/2006 02007KT P6SM BKN250
     FM190900 02008KT P6SM BKN035
     FM191400 04010G20KT P6SM SCT250
     FM192300 07007KT P6SM SCT250=



000
FTUS41 KCLE 190500
TAFCLE
TAF
KCLE 190531Z 1906/2012 04008KT P6SM BKN035
     FM191300 04012G20KT P6SM SCT250
     FM200100 08005KT P6SM SCT250=



000
FTUS41 KCLE 190500
TAFYNG
TAF
KYNG 190531Z 1906/2006 03006KT P6SM BKN070
     FM190800 03008KT P6SM BKN035
     FM191400 03010KT P6SM SCT250
     FM200100 07006KT P6SM SCT250=



000
FTUS41 KCLE 190500
TAFFDY
TAF
KFDY 190531Z 1906/2006 04010KT P6SM SCT035
     FM191200 06010G20KT P6SM SCT250
     FM200100 08007KT P6SM SCT250=



000
FTUS41 KCLE 190500
TAFERI
TAF
KERI 190531Z 1906/2006 03006KT P6SM BKN035
     FM191300 03010KT P6SM SCT250
     FM192300 08006KT P6SM SCT250=



000
FTUS41 KCLE 190500
TAFCAK
TAF
KCAK 190531Z 1906/2006 04006KT P6SM SCT250
     FM190900 04008KT P6SM BKN035
     FM191300 04010KT P6SM SCT250
     FM200100 06006KT P6SM SCT250=



000
FTUS41 KCLE 190200 AAA
TAFCLE
TAF AMD
KCLE 190252Z 1903/2006 03006KT P6SM FEW025 SCT035
      TEMPO 1907/1911 SCT015 OVC025
     FM191400 04012G20KT P6SM FEW100 SCT250=



000
FTUS41 KCLE 190200 AAA
TAFERI
TAF AMD
KERI 190211Z 1902/1924 02005KT P6SM FEW025 BKN035
     FM190900 02006KT P6SM SCT035
     FM191400 03010KT P6SM FEW100 SCT250=



000
FTUS41 KCLE 182300
TAFERI
TAF
KERI 182330Z 1900/1924 35005KT P6SM FEW060 SCT100
     FM190500 02005KT P6SM FEW025 BKN035
     FM190900 02006KT P6SM SCT035
     FM191400 03010KT P6SM FEW100 SCT250=



000
FTUS41 KCLE 182300
TAFCAK
TAF
KCAK 182330Z 1900/1924 36005KT P6SM FEW060 BKN120
     FM190800 03006KT P6SM FEW025 SCT035
      TEMPO 1910/1913 BKN025
     FM191500 05010KT P6SM FEW100 SCT250=



000
FTUS41 KCLE 182300
TAFCLE
TAF
KCLE 182330Z 1900/2006 02008KT P6SM FEW060 SCT100
     FM190600 03008KT P6SM FEW025 SCT035
      TEMPO 1907/1911 SCT015 OVC025
     FM191400 04012G20KT P6SM FEW100 SCT250=



000
FTUS41 KCLE 182300
TAFTOL
TAF
KTOL 182330Z 1900/1924 32010KT P6SM SKC
     FM190300 01008KT P6SM SKC
     FM190600 05008KT P6SM FEW025 SCT035
      TEMPO 1907/1911 SCT015 OVC025
     FM191400 06010G18KT P6SM FEW100 SCT250=



000
FTUS41 KCLE 182300
TAFMFD
TAF
KMFD 182330Z 1900/1924 30005KT P6SM SCT060 BKN120
     FM190400 01008KT P6SM SKC
     FM190900 04008KT P6SM SCT028
     FM191400 06012KT P6SM FEW100 SCT250=



000
FTUS41 KCLE 182300
TAFYNG
TAF
KYNG 182330Z 1900/1924 34006KT P6SM SCT120 BKN200
     FM190700 02005KT P6SM SCT025 BKN035
      TEMPO 1908/1910 BKN025
     FM191100 03005KT P6SM SCT035
     FM191500 03010G18KT P6SM FEW100 SCT250=



000
FTUS41 KCLE 182300
TAFFDY
TAF
KFDY 182330Z 1900/1924 33008KT P6SM SKC
     FM190300 01008KT P6SM SKC
     FM190800 03009KT P6SM FEW025 SCT035
     FM191400 07012KT P6SM FEW100 SCT250=



000
FTUS41 KCLE 181900 AAA
TAFFDY
TAF AMD
KFDY 181921Z 1819/1918 26010G18KT P6SM SCT040 OVC070
     FM182200 32008KT P6SM SCT040 BKN100
     FM190200 03005KT P6SM SCT040
     FM190800 05009KT P6SM SCT025=



000
FTUS41 KCLE 181800 AAA
TAFTOL
TAF AMD
KTOL 181835Z 1819/1918 27010KT P6SM SCT045 BKN070
     FM182100 33008KT P6SM SCT050
     FM190100 36006KT P6SM BKN200
     FM190600 04006KT P6SM BKN025
     FM191300 07010KT P6SM FEW030=



000
FTUS41 KCLE 181700
TAFMFD
TAF
KMFD 181724Z 1818/1918 28007KT P6SM SCT040
     FM182200 32010KT P6SM SCT040 BKN080
     FM190300 03006KT P6SM SCT020=



000
FTUS41 KCLE 181700
TAFCAK
TAF
KCAK 181724Z 1818/1918 26008KT P6SM SCT150 BKN250
     FM182300 34006KT P6SM SCT040 BKN200
     FM190100 02006KT P6SM SCT025=



000
FTUS41 KCLE 181700
TAFCLE
TAF
KCLE 181724Z 1818/1924 02008KT P6SM SCT080
     FM190400 03006KT P6SM BKN028
     FM191200 04008KT P6SM SCT030=



000
FTUS41 KCLE 181700
TAFTOL
TAF
KTOL 181724Z 1818/1918 30006KT P6SM BKN045 BKN080
     FM182100 33008KT P6SM SCT050
     FM190100 36006KT P6SM BKN200
     FM190600 04006KT P6SM BKN025
     FM191300 07010KT P6SM FEW030=



000
FTUS41 KCLE 181700
TAFFDY
TAF
KFDY 181724Z 1818/1918 26006KT P6SM SCT040 SCT080
     FM182200 32008KT P6SM SCT040 BKN100
     FM190200 03005KT P6SM SCT040
     FM190800 05009KT P6SM SCT025=



000
FTUS41 KCLE 181700
TAFERI
TAF
KERI 181724Z 1818/1918 28010G20KT P6SM BKN200
     FM190200 36007KT P6SM BKN035
     FM190900 02006KT P6SM SCT030=



000
FTUS41 KCLE 181700
TAFYNG
TAF
KYNG 181724Z 1818/1918 VRB06KT P6SM SCT150 BKN250
     FM182300 34006KT P6SM SCT040 BKN200
     FM190100 02006KT P6SM SCT025=



000
FTUS41 KCLE 181600 AAB
TAFCLE
TAF AMD
KCLE 181650Z 1817/1918 01009KT P6SM SCT080
     FM190400 03006KT P6SM BKN028
     FM191200 04008KT P6SM SCT030=



000
FTUS41 KCLE 181500 AAA
TAFERI
TAF AMD
KERI 181521Z 1815/1912 21010KT P6SM SCT120 OVC250
     FM181900 26012G18KT P6SM VCSH SCT040 OVC100
     FM190300 35007KT P6SM SCT100 BKN200=



000
FTUS41 KCLE 181500 AAA
TAFCLE
TAF AMD
KCLE 181508Z 1815/1918 31006KT P6SM BKN150 BKN200
     FM182100 36008KT P6SM SCT045 OVC100
     FM190100 03005KT P6SM SCT045 BKN200=



    US Dept of Commerce
    National Oceanic and Atmospheric Administration
    National Weather Service
    1325 East West Highway
    Silver Spring, MD 20910
    Page Author: NWS Internet Services Team
Disclaimer
Information Quality
Credits
Glossary
Privacy Policy
Freedom of Information Act (FOIA)
About Us
Career Opportunities